Agawam, Massachusetts
Current Conditions -  °F | °C
As of 6:53 PM on Friday 28 Nov 2014 (Local Time) from KBAF Reporting Station
Clear Clear  
Wind Chill: 20°   Ceiling: Unl
Heat Index: 27°   Visibility: 10mi
Dew Point: 13°   Wind: 6mph
Humidity: 56%   Direction: 280°W
Pressure: 30.19"   Gusts: NA
Location:  42.07°N, 72.61°W
Report Text: KBAF 282353Z 28005KT 10SM CLR M03/M11 A3019 RMK AO2 SLP231 T10281106 10011 21033 51020
Loading
Personal Weather Stations






























Interactive Weather Map New forecast layout! Learn more

10-Day Weather Forecast

Advertisements
Track Severe Weather on mobile